Terminal Aerodrome Forecast
Issued by NWS

Home | Current Version | Previous Version | Text Only | Print | Product List | Glossary On
Versions: 1 2 3 4 5 6 7 8 9 10 11 12 13 14 15 16 17 18
640
FTUS43 KDTX 101725
TAFDET
TAF
KDET 101725Z 1018/1118 32013G20KT 5SM -SHSN SCT025 BKN035
      TEMPO 1023/1102 1SM -SN OVC025
     FM110200 26013KT P6SM SCT035 BKN045
     FM110500 26010KT P6SM SCT045
     FM111400 28013G20KT P6SM SCT045
     FM111600 30012G20KT P6SM OVC035=

USA.gov is the U.S. government's official web portal to all federal, state and local government web resources and services.